createdAt,value
2022-11-27T00:02:26.933Z,92412.09
2022-11-27T00:05:29.925Z,92414.69
2022-11-27T00:08:32.929Z,92420.97
2022-11-27T00:11:36.080Z,92436.13
2022-11-27T00:14:39.137Z,92436.56
2022-11-27T00:17:42.487Z,92452.00
2022-11-27T00:20:45.494Z,92454.81
2022-11-27T00:23:48.616Z,92453.97
2022-11-27T00:26:51.733Z,92456.19
2022-11-27T00:29:54.761Z,92465.47
2022-11-27T00:32:57.869Z,92469.97
2022-11-27T00:36:08.346Z,92474.97
2022-11-27T00:39:11.429Z,92485.88
2022-11-27T00:42:14.574Z,92497.19
2022-11-27T00:45:18.292Z,92502.31
2022-11-27T00:48:21.328Z,92510.91
2022-11-27T00:51:25.296Z,92516.47
2022-11-27T00:54:28.295Z,92519.53
2022-11-27T00:57:31.513Z,92534.28
2022-11-27T01:00:34.513Z,92538.31
2022-11-27T01:03:37.977Z,92544.34
2022-11-27T01:06:41.971Z,92550.41
2022-11-27T01:09:44.723Z,92550.66
2022-11-27T01:12:50.756Z,92554.72
2022-11-27T01:16:05.628Z,92556.56
2022-11-27T01:19:08.728Z,92554.31
2022-11-27T01:22:11.698Z,92561.06
2022-11-27T01:25:14.923Z,92562.09
2022-11-27T01:28:18.278Z,92568.19
2022-11-27T01:31:24.194Z,92572.22
2022-11-27T01:34:27.245Z,92578.31
2022-11-27T01:37:30.342Z,92582.69
2022-11-27T01:40:33.570Z,92594.13
2022-11-27T01:43:56.026Z,92596.00
2022-11-27T01:47:00.794Z,92595.16
2022-11-27T01:50:14.274Z,92592.31
2022-11-27T01:53:20.554Z,92599.69
2022-11-27T01:56:26.795Z,92590.59
2022-11-27T01:59:30.463Z,92599.09
2022-11-27T02:02:33.568Z,92597.19
2022-11-27T02:05:36.901Z,92602.41
2022-11-27T02:08:40.431Z,92599.19
2022-11-27T02:12:25.552Z,92602.03
2022-11-27T02:15:34.603Z,92606.09
2022-11-27T02:18:49.279Z,92620.59
2022-11-27T02:22:21.243Z,92619.56
2022-11-27T02:26:03.361Z,92635.38
2022-11-27T02:29:15.492Z,92638.25
2022-11-27T02:32:18.653Z,92637.41
2022-11-27T02:35:36.775Z,92650.50
2022-11-27T02:38:46.178Z,92644.06
2022-11-27T02:41:58.165Z,92650.44
2022-11-27T02:45:27.733Z,92647.06
2022-11-27T02:48:37.416Z,92655.78
2022-11-27T02:51:49.649Z,92659.13
2022-11-27T02:54:56.526Z,92657.78
2022-11-27T02:58:01.626Z,92661.84
2022-11-27T03:01:07.720Z,92660.81
2022-11-27T03:04:15.502Z,92664.69
2022-11-27T03:07:49.311Z,92666.03
2022-11-27T03:11:04.803Z,92660.09
2022-11-27T03:14:11.312Z,92658.25
2022-11-27T03:18:06.292Z,92665.63
2022-11-27T03:21:53.836Z,92665.97
2022-11-27T03:24:56.933Z,92675.22
2022-11-27T03:28:03.682Z,92677.16
2022-11-27T03:31:06.814Z,92676.31
2022-11-27T03:34:09.893Z,92683.00
2022-11-27T03:37:13.311Z,92686.16
2022-11-27T03:40:17.743Z,92696.75
2022-11-27T03:43:26.474Z,92695.50
2022-11-27T03:47:13.777Z,92695.69
2022-11-27T03:50:47.770Z,92696.69
2022-11-27T03:53:53.944Z,92703.88
2022-11-27T03:57:21.654Z,92710.06
2022-11-27T04:00:39.203Z,92714.91
2022-11-27T04:03:42.822Z,92713.66
2022-11-27T04:06:46.042Z,92712.97
2022-11-27T04:09:49.125Z,92708.38
2022-11-27T04:12:52.235Z,92705.22
2022-11-27T04:15:56.809Z,92706.88
2022-11-27T04:19:00.006Z,92708.38
2022-11-27T04:22:11.697Z,92709.00
2022-11-27T04:25:14.780Z,92702.91
2022-11-27T04:28:20.941Z,92712.47
2022-11-27T04:31:24.015Z,92723.72
2022-11-27T04:34:27.058Z,92725.63
2022-11-27T04:37:30.043Z,92720.06
2022-11-27T04:40:33.576Z,92716.34
2022-11-27T04:43:36.571Z,92720.38
2022-11-27T04:46:40.075Z,92714.94
2022-11-27T04:49:43.237Z,92712.72
2022-11-27T04:52:46.568Z,92720.97
2022-11-27T04:55:51.410Z,92723.44
2022-11-27T04:58:54.892Z,92728.78
2022-11-27T05:01:58.551Z,92727.22
2022-11-27T05:05:01.664Z,92737.63
2022-11-27T05:08:05.757Z,92743.06
2022-11-27T05:11:13.696Z,92745.78
2022-11-27T05:14:21.093Z,92746.19
2022-11-27T05:17:24.117Z,92746.81
2022-11-27T05:20:27.049Z,92750.94
2022-11-27T05:23:30.259Z,92753.09
2022-11-27T05:26:34.089Z,92746.63
2022-11-27T05:29:37.115Z,92745.44
2022-11-27T05:32:40.081Z,92754.50
2022-11-27T05:35:43.677Z,92759.22
2022-11-27T05:38:46.814Z,92764.06
2022-11-27T05:41:49.868Z,92769.25
2022-11-27T05:44:57.907Z,92766.72
2022-11-27T05:48:01.373Z,92768.06
2022-11-27T05:51:04.675Z,92766.06
2022-11-27T05:54:07.842Z,92774.47
2022-11-27T05:57:11.157Z,92779.00
2022-11-27T06:00:14.946Z,92771.56
2022-11-27T06:03:18.292Z,92776.75
2022-11-27T06:06:21.897Z,92779.97
2022-11-27T06:09:25.304Z,92789.44
2022-11-27T06:12:28.432Z,92782.88
2022-11-27T06:15:31.539Z,92785.94
2022-11-27T06:18:35.403Z,92788.72
2022-11-27T06:21:38.637Z,92785.56
2022-11-27T06:24:42.057Z,92793.56
2022-11-27T06:27:45.456Z,92797.28
2022-11-27T06:30:48.583Z,92807.56
2022-11-27T06:33:53.447Z,92801.97
2022-11-27T06:36:56.523Z,92799.44
2022-11-27T06:39:59.613Z,92805.81
2022-11-27T06:43:02.630Z,92811.56
2022-11-27T06:46:07.801Z,92809.34
2022-11-27T06:49:11.014Z,92814.53
2022-11-27T06:52:14.192Z,92822.88
2022-11-27T06:55:17.378Z,92833.09
2022-11-27T06:58:20.533Z,92831.25
2022-11-27T07:01:25.156Z,92832.19
2022-11-27T07:04:28.239Z,92837.16
2022-11-27T07:07:31.310Z,92845.69
2022-11-27T07:10:37.508Z,92857.47
2022-11-27T07:13:40.602Z,92855.94
2022-11-27T07:16:43.712Z,92858.66
2022-11-27T07:19:47.681Z,92858.44
2022-11-27T07:22:50.924Z,92861.38
2022-11-27T07:25:53.879Z,92869.53
2022-11-27T07:28:57.339Z,92888.09
2022-11-27T07:32:00.388Z,92889.41
2022-11-27T07:35:03.920Z,92882.59
2022-11-27T07:38:06.923Z,92888.47
2022-11-27T07:41:11.946Z,92892.13
2022-11-27T07:44:14.869Z,92900.94
2022-11-27T07:47:17.976Z,92902.69
2022-11-27T07:50:20.983Z,92912.31
2022-11-27T07:53:23.989Z,92914.59
2022-11-27T07:56:28.052Z,92907.41
2022-11-27T07:59:30.992Z,92923.13
2022-11-27T08:02:33.887Z,92917.28
2022-11-27T08:05:37.935Z,92922.88
2022-11-27T08:08:40.946Z,92921.72
2022-11-27T08:11:43.986Z,92926.13
2022-11-27T08:14:46.946Z,92930.03
2022-11-27T08:17:49.962Z,92939.47
2022-11-27T08:20:54.098Z,92950.44
2022-11-27T08:23:58.336Z,92959.88
2022-11-27T08:27:01.154Z,92960.91
2022-11-27T08:30:06.482Z,92964.78
2022-11-27T08:33:11.011Z,92980.44
2022-11-27T08:36:18.064Z,92982.28
2022-11-27T08:39:21.698Z,92992.25
2022-11-27T08:42:24.737Z,92995.59
2022-11-27T08:45:27.880Z,92998.97
2022-11-27T08:48:31.014Z,93002.44
2022-11-27T08:51:33.999Z,93006.47
2022-11-27T08:54:37.471Z,93004.91
2022-11-27T08:57:40.610Z,93014.16
2022-11-27T09:00:43.866Z,93024.91
2022-11-27T09:03:48.182Z,93022.94
2022-11-27T09:06:56.765Z,93027.44
2022-11-27T09:10:01.265Z,93036.31
2022-11-27T09:13:04.285Z,93028.91
2022-11-27T09:16:12.645Z,93041.84
2022-11-27T09:19:15.808Z,93038.78
2022-11-27T09:22:19.437Z,93034.91
2022-11-27T09:25:22.406Z,93039.81
2022-11-27T09:28:30.992Z,93047.69
2022-11-27T09:31:34.877Z,93057.09
2022-11-27T09:34:38.083Z,93066.13
2022-11-27T09:37:41.222Z,93068.50
2022-11-27T09:40:52.531Z,93075.75
2022-11-27T09:44:05.111Z,93078.41
2022-11-27T09:47:37.201Z,93077.53
2022-11-27T09:50:51.091Z,93071.97
2022-11-27T09:54:03.044Z,93078.97
2022-11-27T09:57:07.453Z,93095.28
2022-11-27T10:00:20.257Z,93100.13
2022-11-27T10:03:28.129Z,93105.81
2022-11-27T10:06:51.538Z,93115.34
2022-11-27T10:10:21.720Z,93127.16
2022-11-27T10:13:30.771Z,93137.06
2022-11-27T10:16:45.468Z,93139.91
2022-11-27T10:19:54.475Z,93127.53
2022-11-27T10:23:06.422Z,93136.63
2022-11-27T10:26:21.715Z,93128.44
2022-11-27T10:29:50.457Z,93136.34
2022-11-27T10:32:56.764Z,93135.09
2022-11-27T10:36:01.893Z,93141.19
2022-11-27T10:39:12.295Z,93150.66
2022-11-27T10:42:23.529Z,93148.69
2022-11-27T10:45:36.289Z,93161.50
2022-11-27T10:48:39.563Z,93169.53
2022-11-27T10:51:42.864Z,93166.22
2022-11-27T10:54:52.117Z,93169.16
2022-11-27T10:58:20.387Z,93174.63
2022-11-27T11:01:25.978Z,93168.34
2022-11-27T11:04:38.029Z,93175.28
2022-11-27T11:07:41.934Z,93185.66
2022-11-27T11:10:54.508Z,93184.31
2022-11-27T11:13:57.834Z,93180.88
2022-11-27T11:17:00.968Z,93199.84
2022-11-27T11:20:22.925Z,93210.69
2022-11-27T11:23:35.939Z,93216.81
2022-11-27T11:26:42.116Z,93220.16
2022-11-27T11:29:55.956Z,93231.34
2022-11-27T11:33:04.146Z,93243.16
2022-11-27T11:36:12.413Z,93240.25
2022-11-27T11:39:27.676Z,93242.66
2022-11-27T11:42:34.468Z,93246.22
2022-11-27T11:45:46.639Z,93245.63
2022-11-27T11:48:55.185Z,93239.72
2022-11-27T11:52:22.869Z,93246.19
2022-11-27T11:55:40.048Z,93241.81
2022-11-27T11:58:54.875Z,93247.66
2022-11-27T12:02:07.446Z,93238.91
2022-11-27T12:05:36.780Z,93235.63
2022-11-27T12:09:23.580Z,93240.47
2022-11-27T12:12:26.675Z,93241.56
2022-11-27T12:15:53.543Z,93235.38
2022-11-27T12:19:16.709Z,93256.69
2022-11-27T12:23:10.368Z,93259.28
2022-11-27T12:26:41.743Z,93247.63
2022-11-27T12:30:04.887Z,93257.44
2022-11-27T12:33:17.872Z,93264.97
2022-11-27T12:36:38.999Z,93269.31
2022-11-27T12:39:54.465Z,93276.19
2022-11-27T12:43:09.586Z,93283.72
2022-11-27T12:46:20.526Z,93285.75
2022-11-27T12:49:35.254Z,93292.59
2022-11-27T12:52:46.803Z,93282.16
2022-11-27T12:56:15.507Z,93284.59
2022-11-27T12:59:34.328Z,93288.41
2022-11-27T13:02:46.971Z,93293.22
2022-11-27T13:05:52.698Z,93296.94
2022-11-27T13:08:58.506Z,93299.19
2022-11-27T13:12:03.767Z,93296.72
2022-11-27T13:15:22.514Z,93301.75
2022-11-27T13:18:36.523Z,93308.75
2022-11-27T13:21:41.340Z,93305.63
2022-11-27T13:24:44.769Z,93311.44
2022-11-27T13:27:51.899Z,93309.72
2022-11-27T13:30:58.348Z,93322.75
2022-11-27T13:34:05.508Z,93337.38
2022-11-27T13:37:10.185Z,93335.66
2022-11-27T13:40:21.815Z,93345.06
2022-11-27T13:43:33.904Z,93349.63
2022-11-27T13:46:46.660Z,93340.66
2022-11-27T13:50:02.304Z,93345.69
2022-11-27T13:53:07.968Z,93355.91
2022-11-27T13:56:11.144Z,93357.88
2022-11-27T13:59:22.829Z,93352.19
2022-11-27T14:02:27.250Z,93361.75
2022-11-27T14:05:46.210Z,93363.88
2022-11-27T14:09:08.721Z,93362.16
2022-11-27T14:12:23.675Z,93372.47
2022-11-27T14:15:28.424Z,93370.19
2022-11-27T14:18:32.170Z,93381.09
2022-11-27T14:21:42.249Z,93373.06
2022-11-27T14:24:47.349Z,93374.06
2022-11-27T14:28:11.116Z,93375.75
2022-11-27T14:31:32.447Z,93383.84
2022-11-27T14:34:35.554Z,93383.16
2022-11-27T14:37:38.501Z,93393.63
2022-11-27T14:40:41.676Z,93400.19
2022-11-27T14:43:44.760Z,93400.41
2022-11-27T14:46:48.620Z,93397.38
2022-11-27T14:49:57.934Z,93397.81
2022-11-27T14:53:01.327Z,93402.56
2022-11-27T14:56:05.683Z,93410.97
2022-11-27T14:59:16.913Z,93399.16
2022-11-27T15:02:24.626Z,93409.97
2022-11-27T15:05:30.933Z,93414.31
2022-11-27T15:08:39.215Z,93408.19
2022-11-27T15:11:55.852Z,93415.03
2022-11-27T15:15:04.417Z,93412.72
2022-11-27T15:18:09.979Z,93415.19
2022-11-27T15:21:18.746Z,93411.25
2022-11-27T15:24:32.331Z,93417.47
2022-11-27T15:27:55.666Z,93418.97
2022-11-27T15:30:59.188Z,93416.06
2022-11-27T15:34:23.582Z,93410.31
2022-11-27T15:37:34.718Z,93407.53
2022-11-27T15:40:40.907Z,93411.09
2022-11-27T15:43:43.954Z,93406.88
2022-11-27T15:46:47.806Z,93416.56
2022-11-27T15:49:51.765Z,93404.91
2022-11-27T15:52:54.876Z,93403.81
2022-11-27T15:55:59.204Z,93416.22
2022-11-27T15:59:02.213Z,93419.41
2022-11-27T16:02:05.907Z,93429.91
2022-11-27T16:05:10.320Z,93419.25
2022-11-27T16:08:13.465Z,93422.72
2022-11-27T16:11:20.163Z,93422.56
2022-11-27T16:14:23.518Z,93422.56
2022-11-27T16:17:26.491Z,93434.41
2022-11-27T16:20:29.601Z,93430.19
2022-11-27T16:23:33.545Z,93432.88
2022-11-27T16:26:38.669Z,93438.34
2022-11-27T16:29:41.787Z,93440.69
2022-11-27T16:32:44.816Z,93440.25
2022-11-27T16:35:49.291Z,93446.16
2022-11-27T16:38:55.089Z,93444.56
2022-11-27T16:42:00.400Z,93457.47
2022-11-27T16:45:03.752Z,93449.72
2022-11-27T16:48:07.568Z,93457.25
2022-11-27T16:51:22.319Z,93456.31
2022-11-27T16:54:25.600Z,93463.97
2022-11-27T16:57:30.500Z,93469.88
2022-11-27T17:00:33.522Z,93471.22
2022-11-27T17:03:36.913Z,93462.34
2022-11-27T17:06:40.050Z,93456.63
2022-11-27T17:09:43.143Z,93462.09
2022-11-27T17:12:46.183Z,93460.75
2022-11-27T17:15:49.400Z,93462.34
2022-11-27T17:18:52.890Z,93455.69
2022-11-27T17:21:56.343Z,93450.41
2022-11-27T17:25:00.810Z,93459.03
2022-11-27T17:28:05.797Z,93461.50
2022-11-27T17:31:13.317Z,93456.91
2022-11-27T17:34:18.360Z,93458.53
2022-11-27T17:37:21.461Z,93454.41
2022-11-27T17:40:24.683Z,93457.53
2022-11-27T17:43:28.723Z,93463.66
2022-11-27T17:46:31.836Z,93467.94
2022-11-27T17:49:35.057Z,93471.06
2022-11-27T17:52:38.454Z,93469.97
2022-11-27T17:55:41.735Z,93470.19
2022-11-27T17:58:45.536Z,93478.88
2022-11-27T18:01:51.847Z,93477.97
2022-11-27T18:04:55.159Z,93485.56
2022-11-27T18:08:00.238Z,93485.97
2022-11-27T18:11:13.963Z,93494.19
2022-11-27T18:14:16.914Z,93490.53
2022-11-27T18:17:21.484Z,93493.25
2022-11-27T18:20:24.604Z,93496.66
2022-11-27T18:23:27.539Z,93495.06
2022-11-27T18:26:52.642Z,93499.16
2022-11-27T18:29:53.648Z,93502.84
2022-11-27T18:32:56.565Z,93511.72
2022-11-27T18:35:59.544Z,93504.88
2022-11-27T18:39:04.271Z,93513.09
2022-11-27T18:42:08.040Z,93516.75
2022-11-27T18:45:31.167Z,93520.41
2022-11-27T18:48:35.261Z,93533.44
2022-11-27T18:51:39.236Z,93543.44
2022-11-27T18:54:44.932Z,93547.53
2022-11-27T18:57:48.059Z,93546.41
2022-11-27T19:00:51.988Z,93552.53
2022-11-27T19:03:56.961Z,93554.41
2022-11-27T19:06:59.980Z,93548.28
2022-11-27T19:10:03.535Z,93548.03
2022-11-27T19:13:06.979Z,93560.06
2022-11-27T19:16:15.898Z,93566.66
2022-11-27T19:22:45.380Z,93566.00
2022-11-27T19:25:49.808Z,93562.09
2022-11-27T19:28:55.200Z,93563.94
2022-11-27T19:31:59.393Z,93565.53
2022-11-27T19:35:06.966Z,93566.50
2022-11-27T19:38:10.560Z,93572.38
2022-11-27T19:41:17.483Z,93576.97
2022-11-27T19:44:21.110Z,93571.75
2022-11-27T19:47:24.206Z,93567.59
2022-11-27T19:50:27.161Z,93573.06
2022-11-27T19:53:30.162Z,93573.78
2022-11-27T19:56:35.514Z,93574.94
2022-11-27T19:59:40.507Z,93576.75
2022-11-27T20:02:45.464Z,93574.69
2022-11-27T20:05:49.458Z,93582.69
2022-11-27T20:08:54.754Z,93579.94
2022-11-27T20:12:00.550Z,93574.47
2022-11-27T20:15:09.693Z,93570.81
2022-11-27T20:18:12.699Z,93569.19
2022-11-27T20:21:21.623Z,93560.03
2022-11-27T20:24:26.083Z,93570.97
2022-11-27T20:27:29.749Z,93569.13
2022-11-27T20:30:34.885Z,93565.28
2022-11-27T20:33:38.014Z,93564.38
2022-11-27T20:36:41.551Z,93567.34
2022-11-27T20:39:45.735Z,93566.88
2022-11-27T20:42:48.764Z,93565.06
2022-11-27T20:45:54.236Z,93570.78
2022-11-27T20:48:58.484Z,93567.56
2022-11-27T20:52:04.073Z,93562.53
2022-11-27T20:55:07.644Z,93563.44
2022-11-27T20:58:10.716Z,93570.50
2022-11-27T21:01:18.708Z,93571.66
2022-11-27T21:04:25.628Z,93570.31
2022-11-27T21:07:29.351Z,93574.16
2022-11-27T21:10:32.510Z,93571.66
2022-11-27T21:13:35.590Z,93569.63
2022-11-27T21:16:44.510Z,93575.81
2022-11-27T21:19:48.094Z,93579.69
2022-11-27T21:22:51.343Z,93580.09
2022-11-27T21:25:54.812Z,93577.56
2022-11-27T21:28:58.389Z,93590.84
2022-11-27T21:32:02.258Z,93590.84
2022-11-27T21:35:05.499Z,93601.06
2022-11-27T21:38:09.213Z,93595.38
2022-11-27T21:41:14.614Z,93597.22
2022-11-27T21:44:18.781Z,93598.38
2022-11-27T21:47:21.802Z,93597.44
2022-11-27T21:50:24.838Z,93581.94
2022-11-27T21:53:31.267Z,93585.16
2022-11-27T21:56:38.207Z,93581.94
2022-11-27T21:59:43.889Z,93589.28
2022-11-27T22:02:47.119Z,93587.25
2022-11-27T22:05:58.552Z,93585.19
2022-11-27T22:09:01.699Z,93574.75
2022-11-27T22:12:04.924Z,93585.25
2022-11-27T22:15:08.761Z,93583.88
2022-11-27T22:18:12.658Z,93580.88
2022-11-27T22:21:16.903Z,93591.41
2022-11-27T22:24:20.078Z,93598.72
2022-11-27T22:27:27.637Z,93603.94
2022-11-27T22:30:31.086Z,93602.56
2022-11-27T22:33:36.108Z,93599.56
2022-11-27T22:36:39.230Z,93605.28
2022-11-27T22:39:44.334Z,93600.50
2022-11-27T22:42:47.701Z,93601.66
2022-11-27T22:45:51.115Z,93598.44
2022-11-27T22:48:55.431Z,93609.19
2022-11-27T22:51:58.961Z,93614.19
2022-11-27T22:55:02.203Z,93615.06
2022-11-27T22:58:05.391Z,93621.91
2022-11-27T23:01:10.624Z,93618.25
2022-11-27T23:04:13.699Z,93624.66
2022-11-27T23:07:21.009Z,93623.53
2022-11-27T23:10:26.934Z,93625.28
2022-11-27T23:13:29.918Z,93622.34
2022-11-27T23:16:33.913Z,93630.56
2022-11-27T23:19:37.336Z,93633.25
2022-11-27T23:22:40.457Z,93638.53
2022-11-27T23:25:43.674Z,93643.09
2022-11-27T23:28:48.320Z,93639.19
2022-11-27T23:31:51.400Z,93652.19
2022-11-27T23:34:54.613Z,93647.38
2022-11-27T23:37:58.260Z,93646.88
2022-11-27T23:41:22.516Z,93656.06
2022-11-27T23:44:25.459Z,93653.13
2022-11-27T23:47:28.581Z,93660.16
2022-11-27T23:50:31.667Z,93667.28
2022-11-27T23:53:34.792Z,93665.22
2022-11-27T23:56:38.498Z,93668.00
2022-11-27T23:59:41.506Z,93673.75
